Time;durP1;ratioP1;P1;durP2;ratioP2;P2;SDS_P1;SDS_P2;PMS_P1;PMS_P2;Temp;Humidity;BMP_temperature;BMP_pressure;BME280_temperature;BME280_humidity;BME280_pressure;Samples;Min_cycle;Max_cycle;Signal;HPM_P1;HPM_P2
2022/05/12 00:01:49;;;;;;;7.25;4.70;;;22.80;78.60;;;;;;5911941;29;94196;-69
2022/05/12 00:04:51;;;;;;;8.20;4.40;;;22.80;78.60;;;;;;5910471;29;94131;-69
2022/05/12 00:07:53;;;;;;;4.82;4.40;;;22.80;79.00;;;;;;5901595;29;93489;-70
2022/05/12 00:10:55;;;;;;;4.50;4.10;;;22.80;78.60;;;;;;5902483;29;94133;-70
2022/05/12 00:13:57;;;;;;;4.90;4.43;;;22.80;78.50;;;;;;5911760;29;94115;-69
2022/05/12 00:17:01;;;;;;;4.70;4.30;;;22.80;78.40;;;;;;5900417;29;95386;-70
2022/05/12 00:20:04;;;;;;;5.18;4.60;;;22.80;78.30;;;;;;5912406;29;94410;-70
2022/05/12 00:23:08;;;;;;;4.70;4.30;;;22.80;78.30;;;;;;5913086;29;94482;-70
2022/05/12 00:26:10;;;;;;;4.80;4.40;;;22.80;78.30;;;;;;5900371;29;94318;-70
2022/05/12 00:29:13;;;;;;;5.05;4.65;;;22.80;79.10;;;;;;5901209;29;94311;-70
2022/05/12 00:32:16;;;;;;;4.65;4.25;;;22.70;78.30;;;;;;5912719;29;93336;-70
2022/05/12 00:35:19;;;;;;;5.43;3.95;;;22.70;78.30;;;;;;5899708;29;94184;-70
2022/05/12 00:38:21;;;;;;;4.97;4.38;;;22.70;78.30;;;;;;5908679;29;93608;-70
2022/05/12 00:41:23;;;;;;;5.85;4.90;;;22.80;78.30;;;;;;5903537;29;94158;-69
2022/05/12 00:44:25;;;;;;;4.93;4.53;;;22.70;78.20;;;;;;5916434;29;94226;-70
2022/05/12 00:47:28;;;;;;;4.30;3.90;;;22.70;78.30;;;;;;5892751;29;95474;-70
2022/05/12 00:50:35;;;;;;;4.65;4.22;;;22.70;78.30;;;;;;5917416;29;94177;-69
2022/05/12 00:53:38;;;;;;;4.80;4.40;;;22.70;78.30;;;;;;5906676;29;94241;-70
2022/05/12 00:56:41;;;;;;;4.50;4.10;;;22.70;78.10;;;;;;5906737;29;94054;-70
2022/05/12 00:59:43;;;;;;;4.75;4.05;;;22.70;78.00;;;;;;5903238;29;94139;-68
2022/05/12 01:02:50;;;;;;;4.47;4.07;;;22.70;77.90;;;;;;5900012;29;94009;-69
2022/05/12 01:05:53;;;;;;;4.43;4.07;;;22.70;77.90;;;;;;5900409;29;94722;-70
2022/05/12 01:08:55;;;;;;;4.20;3.90;;;22.70;77.70;;;;;;5906937;29;93616;-70
2022/05/12 01:11:57;;;;;;;4.45;3.90;;;22.70;77.80;;;;;;5913045;29;95766;-70
2022/05/12 01:14:59;;;;;;;4.28;3.75;;;22.70;77.80;;;;;;5905623;29;94335;-70
2022/05/12 01:18:06;;;;;;;4.10;3.78;;;22.70;77.80;;;;;;5921418;29;95367;-68
2022/05/12 01:21:11;;;;;;;4.50;4.10;;;22.70;77.80;;;;;;5899934;29;93012;-70
2022/05/12 01:24:17;;;;;;;5.05;4.20;;;22.70;77.70;;;;;;5899184;29;94492;-69
2022/05/12 01:27:22;;;;;;;4.30;3.90;;;22.80;77.70;;;;;;5912273;29;94195;-70
2022/05/12 01:30:25;;;;;;;4.28;3.78;;;22.70;77.60;;;;;;5899515;29;94305;-69
2022/05/12 01:33:28;;;;;;;4.45;4.05;;;22.70;77.60;;;;;;5911657;29;94166;-70
2022/05/12 01:36:30;;;;;;;5.35;4.10;;;22.70;77.70;;;;;;5905681;29;92939;-70
2022/05/12 01:39:35;;;;;;;4.22;3.75;;;22.70;77.60;;;;;;5894903;29;93536;-70
2022/05/12 01:42:37;;;;;;;4.35;3.72;;;22.70;77.50;;;;;;5904594;29;94076;-70
2022/05/12 01:45:39;;;;;;;4.30;4.00;;;22.70;77.50;;;;;;5915785;29;94205;-70
2022/05/12 01:48:41;;;;;;;4.25;3.92;;;22.70;77.50;;;;;;5913529;29;95219;-70
2022/05/12 01:51:43;;;;;;;4.50;4.10;;;22.70;77.60;;;;;;5919164;29;94269;-68
2022/05/12 01:54:47;;;;;;;4.15;3.78;;;22.70;77.40;;;;;;5910498;29;94626;-68
2022/05/12 01:57:49;;;;;;;4.07;3.70;;;22.70;77.40;;;;;;5899353;29;94198;-68
2022/05/12 02:00:51;;;;;;;4.25;3.70;;;22.70;77.20;;;;;;5893276;29;93433;-68
2022/05/12 02:03:53;;;;;;;4.07;3.60;;;22.70;77.00;;;;;;5899212;29;94195;-68
2022/05/12 02:06:55;;;;;;;4.47;3.75;;;22.70;76.70;;;;;;5899417;29;94156;-69
2022/05/12 02:09:59;;;;;;;5.45;3.75;;;22.70;76.40;;;;;;5898998;29;93827;-68
2022/05/12 02:13:01;;;;;;;4.25;3.60;;;22.70;76.20;;;;;;5898933;29;94378;-68
2022/05/12 02:16:04;;;;;;;3.90;3.50;;;22.70;76.20;;;;;;5902118;29;94136;-68
2022/05/12 02:19:08;;;;;;;4.20;3.80;;;22.70;76.00;;;;;;5917566;29;95108;-68
2022/05/12 02:22:10;;;;;;;4.22;3.75;;;22.70;75.80;;;;;;5898809;29;94137;-68
2022/05/12 02:25:14;;;;;;;3.97;3.67;;;22.70;75.70;;;;;;5898268;29;94190;-68
2022/05/12 02:28:16;;;;;;;4.32;3.90;;;22.70;75.60;;;;;;5898921;29;94246;-68
2022/05/12 02:31:18;;;;;;;4.15;3.80;;;22.70;75.80;;;;;;5909629;29;94176;-69
2022/05/12 02:34:20;;;;;;;4.00;3.60;;;22.70;75.90;;;;;;5899609;29;94221;-68
2022/05/12 02:37:23;;;;;;;4.50;4.03;;;22.60;75.80;;;;;;5895128;29;94586;-68
2022/05/12 02:40:28;;;;;;;4.35;3.78;;;22.60;75.80;;;;;;5902433;29;94103;-68
2022/05/12 02:43:31;;;;;;;3.92;3.60;;;22.60;75.80;;;;;;5915305;29;94083;-67
2022/05/12 02:46:52;;;;;;;4.10;3.80;;;22.60;75.90;;;;;;5909158;29;94322;-70
2022/05/12 02:49:53;;;;;;;3.95;3.65;;;22.60;76.00;;;;;;5900113;29;95133;-70
2022/05/12 02:52:55;;;;;;;4.57;3.60;;;22.60;75.90;;;;;;5898995;29;94112;-67
2022/05/12 02:56:00;;;;;;;4.03;3.72;;;22.60;76.00;;;;;;5897650;29;94150;-68
2022/05/12 02:59:02;;;;;;;4.95;3.95;;;22.60;75.90;;;;;;5899716;29;92877;-68
2022/05/12 03:02:05;;;;;;;4.18;3.78;;;22.60;75.90;;;;;;5902801;29;92129;-68
2022/05/12 03:05:08;;;;;;;4.25;3.60;;;22.60;75.90;;;;;;5902719;29;93808;-68
2022/05/12 03:08:11;;;;;;;4.63;3.83;;;22.60;75.90;;;;;;5902562;29;94129;-68
2022/05/12 03:11:14;;;;;;;4.57;3.45;;;22.60;75.80;;;;;;5891652;29;93337;-68
2022/05/12 03:14:16;;;;;;;4.32;4.03;;;22.60;75.80;;;;;;5903206;29;94378;-66
2022/05/12 03:17:18;;;;;;;4.20;3.80;;;22.60;75.70;;;;;;5912740;29;94215;-67
2022/05/12 03:20:23;;;;;;;4.75;4.22;;;22.60;75.60;;;;;;5913949;29;95048;-68
2022/05/12 03:23:25;;;;;;;4.78;4.00;;;22.60;75.40;;;;;;5913034;29;94498;-66
2022/05/12 03:26:29;;;;;;;5.00;4.50;;;22.60;75.50;;;;;;5901773;29;94245;-68
2022/05/12 03:29:31;;;;;;;4.97;4.47;;;22.60;75.40;;;;;;5913449;29;94146;-67
2022/05/12 03:32:33;;;;;;;4.25;3.85;;;22.60;75.50;;;;;;5901384;29;94192;-68
2022/05/12 03:35:36;;;;;;;4.82;4.43;;;22.60;75.50;;;;;;5889396;29;94215;-67
2022/05/12 03:38:38;;;;;;;5.38;4.30;;;22.60;75.50;;;;;;5913566;29;94463;-68
2022/05/12 03:41:41;;;;;;;4.65;4.25;;;22.60;75.50;;;;;;5901950;29;93409;-67
2022/05/12 03:44:54;;;;;;;4.43;4.03;;;22.60;75.40;;;;;;5905665;29;94149;-68
2022/05/12 03:47:56;;;;;;;4.05;3.70;;;22.60;75.40;;;;;;5912529;29;94168;-70
2022/05/12 03:50:58;;;;;;;4.78;4.38;;;22.60;75.30;;;;;;5914672;29;95342;-69
2022/05/12 03:54:01;;;;;;;4.20;3.80;;;22.60;75.40;;;;;;5890123;29;94162;-70
2022/05/12 03:57:06;;;;;;;4.05;3.75;;;22.60;75.30;;;;;;5909079;29;94248;-70
2022/05/12 04:00:12;;;;;;;3.97;3.58;;;22.60;75.40;;;;;;5896408;29;92613;-70
2022/05/12 04:03:14;;;;;;;4.82;3.90;;;22.60;75.40;;;;;;5905158;29;94293;-69
2022/05/12 04:06:35;;;;;;;4.18;3.78;;;22.60;75.40;;;;;;5897161;29;94292;-70
2022/05/12 04:09:37;;;;;;;4.40;4.00;;;22.60;75.50;;;;;;5900133;29;94364;-69
2022/05/12 04:12:40;;;;;;;4.53;4.10;;;22.60;75.50;;;;;;5902931;29;93383;-70
2022/05/12 04:15:43;;;;;;;4.03;3.72;;;22.60;75.70;;;;;;5900992;29;94163;-68
2022/05/12 04:18:45;;;;;;;4.40;4.00;;;22.60;75.70;;;;;;5900994;29;94456;-70
2022/05/12 04:21:48;;;;;;;4.30;3.90;;;22.60;75.90;;;;;;5885824;29;95112;-70
2022/05/12 04:24:50;;;;;;;4.28;3.97;;;22.60;75.90;;;;;;5878232;29;93840;-69
2022/05/12 04:27:53;;;;;;;4.35;4.05;;;22.60;76.00;;;;;;5878503;29;94177;-70
2022/05/12 04:30:56;;;;;;;3.88;3.47;;;22.60;76.10;;;;;;5878124;29;94478;-69
2022/05/12 04:37:18;;;;;;;4.90;3.97;;;22.60;76.10;;;;;;5879059;29;92206;-68
2022/05/12 04:40:23;;;;;;;4.00;3.67;;;22.60;76.10;;;;;;5878816;29;94159;-70
2022/05/12 04:43:27;;;;;;;3.90;3.60;;;22.60;76.20;;;;;;5878168;29;93354;-69
2022/05/12 04:46:30;;;;;;;4.35;3.95;;;22.60;76.30;;;;;;5910401;29;92940;-69
2022/05/12 04:49:32;;;;;;;4.07;3.78;;;22.60;76.50;;;;;;5911736;29;94197;-69
2022/05/12 04:52:35;;;;;;;4.63;4.22;;;22.60;76.50;;;;;;5908897;29;95516;-69
2022/05/12 04:55:38;;;;;;;7.75;5.15;;;22.60;76.70;;;;;;5918298;29;94159;-69
2022/05/12 04:58:41;;;;;;;7.68;6.82;;;22.60;76.70;;;;;;5900171;29;94260;-69
2022/05/12 05:01:43;;;;;;;6.82;6.18;;;22.60;76.70;;;;;;5920323;29;94560;-70
2022/05/12 05:04:45;;;;;;;6.53;5.80;;;22.60;76.70;;;;;;5914742;29;94097;-70
2022/05/12 05:07:47;;;;;;;8.20;5.82;;;22.60;76.90;;;;;;5911240;29;94162;-69
2022/05/12 05:10:51;;;;;;;6.20;5.30;;;22.60;77.00;;;;;;5900459;29;93018;-70
2022/05/12 05:13:54;;;;;;;5.97;5.40;;;22.60;77.10;;;;;;5900323;29;93462;-70
2022/05/12 05:16:56;;;;;;;7.93;6.05;;;22.70;77.10;;;;;;5909759;29;94041;-69
2022/05/12 05:19:58;;;;;;;6.78;5.32;;;22.70;77.10;;;;;;5901430;29;94443;-70
2022/05/12 05:23:00;;;;;;;6.13;5.60;;;22.70;77.10;;;;;;5904157;29;95388;-70
2022/05/12 05:26:03;;;;;;;5.57;5.07;;;22.70;77.10;;;;;;5907759;29;94215;-70
2022/05/12 05:29:07;;;;;;;5.70;5.10;;;22.70;77.20;;;;;;5899286;29;94141;-70
2022/05/12 05:32:11;;;;;;;6.35;5.75;;;22.70;77.30;;;;;;5892372;29;94294;-71
2022/05/12 05:35:13;;;;;;;6.80;5.78;;;22.70;77.20;;;;;;5907040;29;93003;-70
2022/05/12 05:38:15;;;;;;;6.05;5.45;;;22.70;77.20;;;;;;5900810;29;94150;-70
2022/05/12 05:41:17;;;;;;;5.85;5.35;;;22.70;77.40;;;;;;5909213;29;94534;-70
2022/05/12 05:44:20;;;;;;;6.20;5.60;;;22.70;77.40;;;;;;5894249;29;93761;-70
2022/05/12 05:47:22;;;;;;;6.10;5.55;;;22.70;77.40;;;;;;5904086;29;94134;-70
2022/05/12 05:50:27;;;;;;;6.22;5.63;;;22.70;77.50;;;;;;5888173;29;93135;-70
2022/05/12 05:53:30;;;;;;;5.95;5.43;;;22.70;77.60;;;;;;5898556;29;93957;-70
2022/05/12 05:56:35;;;;;;;6.00;5.50;;;22.70;77.60;;;;;;5899099;29;94355;-70
2022/05/12 05:59:39;;;;;;;6.55;5.95;;;22.70;77.60;;;;;;5911045;29;94490;-70
2022/05/12 06:02:41;;;;;;;5.78;5.28;;;22.70;77.70;;;;;;5899397;29;94118;-70
2022/05/12 06:05:43;;;;;;;6.03;5.43;;;22.70;77.70;;;;;;5921663;29;94163;-70
2022/05/12 06:08:48;;;;;;;6.13;5.53;;;22.70;77.70;;;;;;5911751;29;93203;-69
2022/05/12 06:11:50;;;;;;;6.00;5.40;;;22.70;77.70;;;;;;5911170;29;94628;-71
2022/05/12 06:14:55;;;;;;;6.20;5.60;;;22.70;77.70;;;;;;5892717;29;93856;-69
2022/05/12 06:17:57;;;;;;;5.82;5.32;;;22.70;77.70;;;;;;5911844;29;94177;-70
2022/05/12 06:20:59;;;;;;;6.55;5.95;;;22.70;77.70;;;;;;5909415;29;94135;-70
2022/05/12 06:24:01;;;;;;;6.07;5.47;;;22.80;77.70;;;;;;5905113;29;94004;-70
2022/05/12 06:27:04;;;;;;;6.18;5.68;;;22.70;77.70;;;;;;5898457;29;94153;-70
2022/05/12 06:30:11;;;;;;;6.47;5.88;;;22.80;77.90;;;;;;5898938;29;94231;-71
2022/05/12 06:33:17;;;;;;;6.35;5.75;;;22.80;77.80;;;;;;5898209;29;94092;-70
2022/05/12 06:36:20;;;;;;;6.38;5.78;;;22.80;77.80;;;;;;5909576;29;94144;-68
2022/05/12 06:39:21;;;;;;;6.18;5.68;;;22.80;77.80;;;;;;5909526;29;94165;-69
2022/05/12 06:42:23;;;;;;;6.60;6.00;;;22.80;77.90;;;;;;5899634;29;94116;-69
2022/05/12 06:45:27;;;;;;;6.72;6.10;;;22.80;77.90;;;;;;5909930;29;93703;-68
2022/05/12 06:48:29;;;;;;;6.53;5.93;;;22.80;77.90;;;;;;5900487;29;94185;-68
2022/05/12 06:51:31;;;;;;;6.72;6.13;;;22.80;78.00;;;;;;5912465;29;94174;-68
2022/05/12 06:54:34;;;;;;;6.80;6.15;;;22.80;78.00;;;;;;5909728;29;95336;-68
2022/05/12 06:57:36;;;;;;;6.93;6.32;;;22.80;78.10;;;;;;5914006;29;94151;-68
2022/05/12 07:00:40;;;;;;;6.65;6.05;;;22.80;78.00;;;;;;5907001;29;93917;-68
2022/05/12 07:03:42;;;;;;;6.85;6.28;;;22.80;78.10;;;;;;5888485;29;94236;-69
2022/05/12 07:06:43;;;;;;;6.45;5.85;;;22.80;78.00;;;;;;5898801;29;94194;-70
2022/05/12 07:09:46;;;;;;;6.18;5.68;;;22.80;78.00;;;;;;5911873;29;94123;-71
2022/05/12 07:12:48;;;;;;;6.40;5.80;;;22.80;78.00;;;;;;5900591;29;94227;-70
2022/05/12 07:15:52;;;;;;;7.22;6.53;;;22.80;78.90;;;;;;5889504;29;93747;-69
2022/05/12 07:18:55;;;;;;;6.90;6.25;;;22.80;78.00;;;;;;5914479;29;94217;-69
2022/05/12 07:28:37;;;;;;;6.35;5.80;;;22.80;78.10;;;;;;5902043;29;92380;-70
2022/05/12 07:31:41;;;;;;;6.40;5.80;;;22.80;78.10;;;;;;5909410;29;93979;-71
2022/05/12 07:34:43;;;;;;;6.68;6.07;;;22.80;78.10;;;;;;5887945;29;94043;-70
2022/05/12 07:37:45;;;;;;;6.20;5.57;;;22.80;78.10;;;;;;5897660;29;94163;-70
2022/05/12 07:40:47;;;;;;;6.28;5.78;;;22.90;78.20;;;;;;5897791;29;94178;-71
2022/05/12 07:43:51;;;;;;;5.97;5.47;;;22.90;78.20;;;;;;5900052;29;93004;-70
2022/05/12 07:46:54;;;;;;;6.38;5.78;;;22.80;78.10;;;;;;5899284;29;93720;-70
2022/05/12 07:49:57;;;;;;;6.93;6.22;;;22.80;78.10;;;;;;5902159;29;94483;-70
2022/05/12 07:53:00;;;;;;;6.65;6.05;;;22.80;78.20;;;;;;5912122;29;94141;-70
2022/05/12 07:56:03;;;;;;;6.20;5.70;;;22.90;78.30;;;;;;5912549;29;95062;-70
2022/05/12 07:59:05;;;;;;;6.78;6.00;;;22.80;78.30;;;;;;5900929;29;94154;-70
2022/05/12 08:02:09;;;;;;;6.75;6.15;;;22.80;78.30;;;;;;5895957;29;93229;-70
2022/05/12 08:05:11;;;;;;;6.53;5.93;;;22.80;78.40;;;;;;5904253;29;94395;-71
2022/05/12 08:08:13;;;;;;;6.43;5.88;;;22.80;78.40;;;;;;5905796;29;94132;-70
2022/05/12 08:11:16;;;;;;;7.28;6.57;;;22.90;78.50;;;;;;5900609;29;94487;-69
2022/05/12 08:14:18;;;;;;;6.78;6.18;;;22.90;78.50;;;;;;5913773;29;93047;-70
2022/05/12 08:17:21;;;;;;;6.70;6.10;;;22.80;78.40;;;;;;5912452;29;92325;-70
2022/05/12 08:20:24;;;;;;;6.97;6.38;;;22.80;78.40;;;;;;5900669;29;94202;-70
2022/05/12 08:23:27;;;;;;;6.60;5.95;;;22.90;78.50;;;;;;5912558;29;94305;-70
2022/05/12 08:26:28;;;;;;;6.82;6.20;;;22.90;78.50;;;;;;5901228;29;95259;-69
2022/05/12 08:29:30;;;;;;;5.93;5.45;;;22.90;78.50;;;;;;5900602;29;94118;-70
2022/05/12 08:32:34;;;;;;;6.60;5.97;;;22.90;78.50;;;;;;5900711;29;94194;-70
2022/05/12 08:35:36;;;;;;;7.28;6.40;;;22.90;78.40;;;;;;5900638;29;94142;-70
2022/05/12 08:38:40;;;;;;;6.70;6.10;;;22.90;78.40;;;;;;5900200;29;94213;-70
2022/05/12 08:41:47;;;;;;;6.70;6.10;;;22.90;78.60;;;;;;5912625;29;94380;-70
2022/05/12 08:44:49;;;;;;;7.20;6.50;;;22.90;78.60;;;;;;5916108;29;94155;-70
2022/05/12 08:47:52;;;;;;;7.07;6.47;;;22.90;78.70;;;;;;5902106;29;93427;-70
2022/05/12 08:50:56;;;;;;;6.97;6.30;;;22.90;78.70;;;;;;5912240;29;94091;-70
2022/05/12 08:54:19;;;;;;;6.90;6.30;;;22.90;78.80;;;;;;5912655;29;94148;-70
2022/05/12 08:57:32;;;;;;;6.32;5.80;;;22.80;78.70;;;;;;5898826;29;96285;-70
2022/05/12 09:00:39;;;;;;;6.50;5.90;;;22.90;78.80;;;;;;5902461;29;94093;-70
2022/05/12 09:03:55;;;;;;;6.80;6.20;;;22.90;78.80;;;;;;5900300;29;94194;-70
2022/05/12 09:07:07;;;;;;;6.70;6.10;;;22.80;78.70;;;;;;5911939;29;94407;-69
2022/05/12 09:10:34;;;;;;;6.38;5.88;;;22.90;78.70;;;;;;5899944;29;94301;-71
2022/05/12 09:13:41;;;;;;;6.45;5.93;;;22.90;78.80;;;;;;5911990;29;94573;-70
2022/05/12 09:16:44;;;;;;;7.00;6.38;;;22.90;79.70;;;;;;5909050;29;94132;-70
2022/05/12 09:19:48;;;;;;;6.68;6.07;;;22.90;79.60;;;;;;5902662;29;93482;-70
2022/05/12 09:22:50;;;;;;;6.55;5.95;;;22.90;78.80;;;;;;5899200;29;94137;-70
2022/05/12 09:25:52;;;;;;;6.43;5.85;;;22.90;78.70;;;;;;5899728;29;94101;-70
2022/05/12 09:29:10;;;;;;;6.75;6.15;;;22.90;78.70;;;;;;5898826;29;93174;-69
2022/05/12 09:32:25;;;;;;;7.00;6.40;;;22.90;78.70;;;;;;5904665;29;94669;-70
2022/05/12 09:35:30;;;;;;;6.40;5.90;;;22.90;78.80;;;;;;5921896;29;94210;-70
2022/05/12 09:38:39;;;;;;;6.72;6.22;;;22.90;78.90;;;;;;5905453;29;95061;-70
2022/05/12 09:41:43;;;;;;;6.43;5.90;;;23.00;79.10;;;;;;5915546;29;95230;-70
2022/05/12 09:44:54;;;;;;;6.78;6.20;;;22.90;79.00;;;;;;5920817;29;94281;-70
2022/05/12 09:48:20;;;;;;;6.43;5.82;;;23.00;79.10;;;;;;5889058;29;93855;-70
2022/05/12 09:51:30;;;;;;;6.50;5.90;;;22.90;79.10;;;;;;5889410;29;93295;-68
2022/05/12 09:54:32;;;;;;;6.80;6.20;;;23.00;79.10;;;;;;5910579;29;94396;-70
2022/05/12 09:57:36;;;;;;;6.70;6.10;;;22.90;79.00;;;;;;5909778;29;94062;-70
2022/05/12 10:00:41;;;;;;;6.35;5.75;;;22.90;79.10;;;;;;5902061;29;95111;-70
2022/05/12 10:10:32;;;;;;;5.95;5.45;;;23.00;79.00;;;;;;5886663;29;92766;-69
2022/05/12 10:13:41;;;;;;;5.70;5.20;;;23.00;79.00;;;;;;5899257;29;94180;-70
2022/05/12 10:16:44;;;;;;;6.50;5.90;;;23.00;79.00;;;;;;5908080;29;94162;-70
2022/05/12 10:19:48;;;;;;;6.60;6.10;;;23.00;79.10;;;;;;5909196;29;93958;-70
2022/05/12 10:22:56;;;;;;;6.10;5.60;;;23.00;79.10;;;;;;5902424;29;93745;-70
2022/05/12 10:26:06;;;;;;;6.38;5.78;;;23.00;79.30;;;;;;5905155;29;96083;-70
2022/05/12 10:29:17;;;;;;;6.38;5.88;;;22.90;79.30;;;;;;5903359;29;94103;-70
2022/05/12 10:32:41;;;;;;;6.20;5.70;;;23.00;79.40;;;;;;5893678;29;95188;-70
2022/05/12 10:35:50;;;;;;;5.50;5.10;;;22.90;79.30;;;;;;5896278;29;94636;-70
2022/05/12 10:39:03;;;;;;;5.85;5.35;;;23.00;79.40;;;;;;5898539;29;94118;-70
2022/05/12 10:42:21;;;;;;;5.32;4.93;;;23.00;79.30;;;;;;5905869;29;94116;-70
2022/05/12 10:45:27;;;;;;;5.53;5.05;;;23.00;79.40;;;;;;5911654;29;94372;-68
2022/05/12 10:48:47;;;;;;;5.75;5.20;;;23.00;79.30;;;;;;5911039;29;94128;-70
2022/05/12 10:52:04;;;;;;;5.45;5.00;;;23.00;79.40;;;;;;5901586;29;94023;-67
2022/05/12 10:55:21;;;;;;;5.50;5.10;;;23.00;79.30;;;;;;5908859;29;93405;-70
2022/05/12 10:58:31;;;;;;;6.00;5.25;;;23.00;79.30;;;;;;5912221;29;94435;-70
2022/05/12 11:01:36;;;;;;;5.25;4.85;;;23.00;79.30;;;;;;5900779;29;93059;-70
2022/05/12 11:04:42;;;;;;;5.50;5.07;;;23.00;80.10;;;;;;5898397;29;95099;-70
2022/05/12 11:07:49;;;;;;;5.25;4.85;;;23.00;79.30;;;;;;5898633;29;94597;-70
2022/05/12 11:10:54;;;;;;;5.20;4.80;;;23.00;79.40;;;;;;5898163;29;94155;-70
2022/05/12 11:14:05;;;;;;;5.47;5.07;;;23.00;79.50;;;;;;5910453;29;94117;-69
2022/05/12 11:17:18;;;;;;;5.20;4.72;;;23.00;79.60;;;;;;5909856;29;94403;-70
2022/05/12 11:20:26;;;;;;;5.30;4.90;;;23.00;79.60;;;;;;5911688;29;94530;-71
2022/05/12 11:23:51;;;;;;;5.03;4.63;;;23.00;79.60;;;;;;5901830;29;94207;-70
2022/05/12 11:27:11;;;;;;;5.15;4.72;;;23.00;79.60;;;;;;5904258;29;92299;-70
2022/05/12 11:30:32;;;;;;;5.35;4.85;;;23.00;79.60;;;;;;5893878;29;94201;-71
2022/05/12 11:33:38;;;;;;;4.90;4.50;;;23.00;79.60;;;;;;5901151;29;94345;-70
2022/05/12 11:36:43;;;;;;;4.97;4.57;;;23.00;79.70;;;;;;5901371;29;95109;-71
2022/05/12 11:39:54;;;;;;;4.93;4.53;;;23.00;79.70;;;;;;5901169;29;94287;-70
2022/05/12 11:47:00;;;;;;;5.30;4.80;;;23.00;79.60;;;;;;5900651;29;93103;-70
2022/05/12 11:50:41;;;;;;;4.82;4.43;;;23.00;79.50;;;;;;5891298;29;92885;-70
2022/05/12 11:54:07;;;;;;;4.80;4.40;;;23.00;79.40;;;;;;5907040;29;94388;-68
2022/05/12 11:57:24;;;;;;;5.05;4.60;;;23.00;79.40;;;;;;5907567;29;94281;-68
2022/05/12 12:00:59;;;;;;;4.80;4.40;;;23.00;79.40;;;;;;5913994;29;93332;-67
2022/05/12 12:04:03;;;;;;;4.90;4.50;;;23.00;79.50;;;;;;5901108;29;94747;-68
2022/05/12 12:07:06;;;;;;;4.85;4.45;;;23.00;79.60;;;;;;5901004;29;94475;-68
2022/05/12 12:10:09;;;;;;;4.90;4.50;;;23.00;79.70;;;;;;5912918;29;95187;-68
2022/05/12 12:13:35;;;;;;;5.30;4.85;;;23.00;79.80;;;;;;5889797;29;94276;-68
2022/05/12 12:17:04;;;;;;;5.10;4.60;;;23.00;79.70;;;;;;5908828;29;94055;-65
2022/05/12 12:20:09;;;;;;;5.03;4.63;;;23.00;79.80;;;;;;5900708;29;94074;-68
2022/05/12 12:23:24;;;;;;;4.90;4.45;;;23.00;79.80;;;;;;5900855;29;94117;-68
2022/05/12 12:26:32;;;;;;;5.30;4.80;;;23.00;79.90;;;;;;5900996;29;94280;-67
2022/05/12 12:29:43;;;;;;;4.78;4.38;;;23.00;79.90;;;;;;5901243;29;94824;-70
2022/05/12 12:33:08;;;;;;;4.82;4.43;;;23.10;79.80;;;;;;5912002;29;93831;-70
2022/05/12 12:36:55;;;;;;;5.10;4.60;;;23.10;79.80;;;;;;5889027;29;95374;-70
2022/05/12 12:39:57;;;;;;;4.70;4.30;;;23.00;79.60;;;;;;5899100;29;94109;-70
2022/05/12 12:42:59;;;;;;;5.10;4.70;;;23.00;79.70;;;;;;5900438;29;95032;-70
2022/05/12 12:46:16;;;;;;;4.57;4.28;;;23.00;79.60;;;;;;5911702;29;92919;-70
2022/05/12 12:49:22;;;;;;;4.50;4.15;;;23.00;79.70;;;;;;5920687;29;94134;-70
2022/05/12 12:52:24;;;;;;;5.00;4.60;;;23.10;79.90;;;;;;5904026;29;94375;-70
2022/05/12 12:58:49;;;;;;;4.53;4.13;;;23.00;79.90;;;;;;5897219;29;92438;-70
2022/05/12 13:01:54;;;;;;;4.70;4.30;;;23.00;79.90;;;;;;5920456;29;94050;-70
2022/05/12 13:05:02;;;;;;;4.78;4.25;;;23.00;80.00;;;;;;5917625;29;93387;-69
2022/05/12 13:08:06;;;;;;;4.60;4.20;;;23.00;80.00;;;;;;5901038;29;94154;-70
2022/05/12 13:11:09;;;;;;;4.20;3.90;;;23.00;80.10;;;;;;5899870;29;94171;-70
2022/05/12 13:14:14;;;;;;;4.50;4.10;;;23.00;80.10;;;;;;5899355;29;95094;-70
2022/05/12 13:17:22;;;;;;;4.57;4.18;;;23.00;80.10;;;;;;5912116;29;95884;-70
2022/05/12 13:20:31;;;;;;;4.65;4.25;;;23.00;80.00;;;;;;5900165;29;94100;-71
2022/05/12 13:23:39;;;;;;;4.50;4.20;;;23.10;80.00;;;;;;5911871;29;94137;-70
2022/05/12 13:26:45;;;;;;;4.70;4.30;;;23.10;80.00;;;;;;5888784;29;94714;-70
2022/05/12 13:29:48;;;;;;;4.57;4.20;;;23.00;79.90;;;;;;5888845;29;94412;-70
2022/05/12 13:32:53;;;;;;;5.10;4.70;;;23.10;80.00;;;;;;5899439;29;94577;-70
2022/05/12 13:35:58;;;;;;;4.95;4.45;;;23.00;80.00;;;;;;5912593;29;92332;-70
2022/05/12 13:39:00;;;;;;;4.80;4.40;;;23.10;80.10;;;;;;5907593;29;92176;-69
2022/05/12 13:42:04;;;;;;;4.88;4.38;;;23.00;80.10;;;;;;5902977;29;94112;-70
2022/05/12 13:45:10;;;;;;;4.82;4.32;;;23.10;80.20;;;;;;5904329;29;95425;-70
2022/05/12 13:48:19;;;;;;;5.20;4.70;;;23.10;80.20;;;;;;5900006;29;94112;-70
2022/05/12 13:51:49;;;;;;;5.10;4.70;;;23.00;80.30;;;;;;5900166;29;94477;-70
2022/05/12 13:55:06;;;;;;;5.10;4.70;;;23.00;80.30;;;;;;5891765;29;94502;-70
2022/05/12 13:58:16;;;;;;;5.50;5.00;;;23.00;80.30;;;;;;5903226;29;94132;-71
2022/05/12 14:01:31;;;;;;;5.00;4.60;;;23.10;80.50;;;;;;5901090;29;94711;-70
2022/05/12 14:04:39;;;;;;;4.88;4.38;;;23.10;80.50;;;;;;5913209;29;94074;-70
2022/05/12 14:07:43;;;;;;;5.00;4.60;;;23.10;80.40;;;;;;5908063;29;93263;-70
2022/05/12 14:10:47;;;;;;;5.28;4.57;;;23.10;80.40;;;;;;5899025;29;94274;-70
2022/05/12 14:20:33;;;;;;;5.20;4.80;;;23.10;80.40;;;;;;5899148;29;92386;-70
2022/05/12 14:23:36;;;;;;;5.10;4.70;;;23.00;80.30;;;;;;5899335;29;94174;-70
2022/05/12 14:26:40;;;;;;;5.30;4.90;;;23.10;80.50;;;;;;5898857;29;94137;-70
2022/05/12 14:29:42;;;;;;;4.97;4.57;;;23.10;80.60;;;;;;5898500;29;93087;-70
2022/05/12 14:32:47;;;;;;;4.90;4.50;;;23.00;80.60;;;;;;5919897;29;93810;-71
2022/05/12 14:35:49;;;;;;;5.30;4.80;;;23.10;80.60;;;;;;5900653;29;94102;-70
2022/05/12 14:38:53;;;;;;;6.05;5.25;;;23.10;80.60;;;;;;5898908;29;93459;-71
2022/05/12 14:41:55;;;;;;;5.20;4.80;;;23.10;80.80;;;;;;5916642;29;94167;-71
2022/05/12 14:44:57;;;;;;;5.25;4.85;;;23.10;80.80;;;;;;5911108;29;93113;-70
2022/05/12 14:48:05;;;;;;;5.18;4.78;;;23.10;80.90;;;;;;5897984;29;95115;-71
2022/05/12 14:51:07;;;;;;;4.68;4.38;;;23.10;80.90;;;;;;5898368;29;94095;-71
2022/05/12 14:54:10;;;;;;;4.80;4.40;;;23.10;80.80;;;;;;5908690;29;93050;-71
2022/05/12 14:57:13;;;;;;;5.10;4.70;;;23.10;80.80;;;;;;5909011;29;94438;-70
2022/05/12 15:00:16;;;;;;;6.03;5.53;;;23.00;80.60;;;;;;5918562;29;92944;-70
2022/05/12 15:03:18;;;;;;;5.38;4.97;;;23.00;80.60;;;;;;5911165;29;94013;-70
2022/05/12 15:06:29;;;;;;;5.85;5.35;;;23.10;80.80;;;;;;5910554;29;94118;-70
2022/05/12 15:09:32;;;;;;;6.00;5.50;;;23.10;80.80;;;;;;5898638;29;93435;-70
2022/05/12 15:12:34;;;;;;;6.07;5.55;;;23.10;80.80;;;;;;5905841;29;94136;-68
2022/05/12 15:15:39;;;;;;;5.55;5.10;;;23.10;81.00;;;;;;5905603;29;94708;-70
2022/05/12 15:18:41;;;;;;;5.70;5.30;;;23.10;80.90;;;;;;5901718;29;95434;-70
2022/05/12 15:21:43;;;;;;;5.57;5.10;;;23.00;80.80;;;;;;5894218;29;94173;-70
2022/05/12 15:24:47;;;;;;;6.70;5.68;;;23.10;80.90;;;;;;5917335;29;94194;-70
2022/05/12 15:27:51;;;;;;;5.82;5.35;;;23.10;81.00;;;;;;5905496;29;93331;-70
2022/05/12 15:30:53;;;;;;;5.60;5.15;;;23.10;81.00;;;;;;5905556;29;94125;-71
2022/05/12 15:33:57;;;;;;;5.70;5.20;;;23.10;81.00;;;;;;5923329;29;94137;-70
2022/05/12 15:36:59;;;;;;;6.10;5.60;;;23.10;81.10;;;;;;5911015;29;94305;-70
2022/05/12 15:40:03;;;;;;;5.35;4.95;;;23.10;81.00;;;;;;5905974;29;93378;-71
2022/05/12 15:43:06;;;;;;;5.30;4.90;;;23.10;81.00;;;;;;5904800;29;94429;-70
2022/05/12 15:46:13;;;;;;;6.03;5.53;;;23.10;81.00;;;;;;5916075;29;94092;-71
2022/05/12 15:49:21;;;;;;;5.80;5.30;;;23.10;81.00;;;;;;5912541;29;95189;-70
2022/05/12 15:52:23;;;;;;;5.85;5.35;;;23.10;81.00;;;;;;5908412;29;94127;-70
2022/05/12 15:55:26;;;;;;;5.72;5.22;;;23.10;81.00;;;;;;5910806;29;92912;-71
2022/05/12 15:58:29;;;;;;;5.65;5.15;;;23.10;81.00;;;;;;5905832;29;94121;-71
2022/05/12 16:01:31;;;;;;;5.90;5.40;;;23.10;81.00;;;;;;5919040;29;94116;-71
2022/05/12 16:04:33;;;;;;;6.10;5.50;;;23.10;81.10;;;;;;5916406;29;94128;-71
2022/05/12 16:07:35;;;;;;;5.10;4.70;;;23.10;81.00;;;;;;5912918;29;94422;-71
2022/05/12 16:10:51;;;;;;;5.60;5.10;;;23.10;80.90;;;;;;5901445;29;93405;-71
2022/05/12 16:13:53;;;;;;;5.30;4.80;;;23.10;81.00;;;;;;5890881;29;94206;-71
2022/05/12 16:16:58;;;;;;;5.28;4.88;;;23.10;81.00;;;;;;5922730;29;94215;-70
2022/05/12 16:20:00;;;;;;;5.70;5.20;;;23.10;81.10;;;;;;5911272;29;95405;-70
2022/05/12 16:23:02;;;;;;;5.00;4.60;;;23.10;81.10;;;;;;5911797;29;94102;-70
2022/05/12 16:26:10;;;;;;;5.40;5.00;;;23.10;81.10;;;;;;5904180;29;94487;-71
2022/05/12 16:29:16;;;;;;;4.95;4.55;;;23.10;81.00;;;;;;5900617;29;94290;-70
2022/05/12 16:32:21;;;;;;;5.03;4.63;;;23.10;81.00;;;;;;5901226;29;94075;-71
2022/05/12 16:35:24;;;;;;;5.20;4.80;;;23.10;81.00;;;;;;5908602;29;94320;-70
2022/05/12 16:38:26;;;;;;;5.50;5.07;;;23.10;81.00;;;;;;5903098;29;94125;-70